createdAt,value
2023-01-08T00:04:35.782Z,100.00
2023-01-08T00:09:43.791Z,100.00
2023-01-08T00:14:47.848Z,100.00
2023-01-08T00:19:49.526Z,100.00
2023-01-08T00:24:53.864Z,100.00
2023-01-08T00:29:58.035Z,100.00
2023-01-08T00:35:01.495Z,100.00
2023-01-08T00:40:03.720Z,100.00
2023-01-08T00:45:08.171Z,100.00
2023-01-08T00:50:13.243Z,100.00
2023-01-08T00:55:15.004Z,100.00
2023-01-08T01:00:16.930Z,100.00
2023-01-08T01:05:20.918Z,100.00
2023-01-08T01:10:24.974Z,100.00
2023-01-08T01:15:26.704Z,100.00
2023-01-08T01:20:33.056Z,100.00
2023-01-08T01:25:40.655Z,100.00
2023-01-08T01:30:42.466Z,100.00
2023-01-08T01:35:46.856Z,100.00
2023-01-08T01:40:50.914Z,100.00
2023-01-08T01:45:52.699Z,100.00
2023-01-08T01:50:56.777Z,100.00
2023-01-08T01:56:01.589Z,100.00
2023-01-08T02:01:06.011Z,100.00
2023-01-08T02:06:13.753Z,100.00
2023-01-08T02:11:26.722Z,100.00
2023-01-08T02:16:39.414Z,100.00
2023-01-08T02:21:54.282Z,100.00
2023-01-08T02:26:59.629Z,100.00
2023-01-08T02:32:02.158Z,100.00
2023-01-08T02:37:06.585Z,100.00
2023-01-08T02:42:23.039Z,100.00
2023-01-08T02:47:40.174Z,100.00
2023-01-08T02:52:54.866Z,100.00
2023-01-08T02:57:57.629Z,100.00
2023-01-08T03:03:28.083Z,100.00
2023-01-08T03:08:30.373Z,100.00
2023-01-08T03:13:46.558Z,100.00
2023-01-08T03:18:54.928Z,100.00
2023-01-08T03:23:57.236Z,100.00
2023-01-08T03:29:01.473Z,100.00
2023-01-08T03:34:05.020Z,100.00
2023-01-08T03:39:17.480Z,100.00
2023-01-08T03:44:19.167Z,100.00
2023-01-08T03:49:23.296Z,100.00
2023-01-08T03:54:35.962Z,100.00
2023-01-08T03:59:39.826Z,100.00
2023-01-08T04:04:41.886Z,100.00
2023-01-08T04:09:48.927Z,100.00
2023-01-08T04:14:50.673Z,100.00
2023-01-08T04:19:57.050Z,100.00
2023-01-08T04:25:00.915Z,100.00
2023-01-08T04:30:07.872Z,100.00
2023-01-08T04:35:12.179Z,100.00
2023-01-08T04:40:18.767Z,100.00
2023-01-08T04:45:27.798Z,100.00
2023-01-08T04:50:32.066Z,100.00
2023-01-08T04:55:37.091Z,100.00
2023-01-08T05:00:40.309Z,100.00
2023-01-08T05:05:42.369Z,100.00
2023-01-08T05:10:51.299Z,100.00
2023-01-08T05:15:58.206Z,100.00
2023-01-08T05:21:02.036Z,100.00
2023-01-08T05:26:05.079Z,100.00
2023-01-08T05:31:11.680Z,100.00
2023-01-08T05:36:14.045Z,100.00
2023-01-08T05:41:18.144Z,100.00
2023-01-08T05:46:23.118Z,100.00
2023-01-08T05:51:28.072Z,100.00
2023-01-08T05:56:34.694Z,100.00
2023-01-08T06:01:38.894Z,100.00
2023-01-08T06:06:42.721Z,100.00
2023-01-08T06:11:47.250Z,100.00
2023-01-08T06:16:51.055Z,100.00
2023-01-08T06:21:55.365Z,100.00
2023-01-08T06:26:59.339Z,100.00
2023-01-08T06:32:05.851Z,100.00
2023-01-08T06:37:07.977Z,100.00
2023-01-08T06:42:14.328Z,100.00
2023-01-08T06:47:16.043Z,100.00
2023-01-08T06:52:20.275Z,100.00
2023-01-08T06:57:26.710Z,100.00
2023-01-08T07:02:30.881Z,100.00
2023-01-08T07:07:35.909Z,100.00
2023-01-08T07:12:42.473Z,100.00
2023-01-08T07:17:46.331Z,100.00
2023-01-08T07:22:48.111Z,100.00
2023-01-08T07:27:50.917Z,100.00
2023-01-08T07:32:55.381Z,100.00
2023-01-08T07:37:59.269Z,100.00
2023-01-08T07:43:04.672Z,100.00
2023-01-08T07:48:07.004Z,100.00
2023-01-08T07:53:08.986Z,100.00
2023-01-08T07:58:13.052Z,100.00
2023-01-08T08:03:15.055Z,100.00
2023-01-08T08:08:20.159Z,100.00
2023-01-08T08:13:22.851Z,100.00
2023-01-08T08:18:27.905Z,100.00
2023-01-08T08:23:33.149Z,100.00
2023-01-08T08:28:40.903Z,100.00
2023-01-08T08:33:46.236Z,100.00
2023-01-08T08:38:50.149Z,100.00
2023-01-08T08:43:51.867Z,100.00
2023-01-08T08:48:55.831Z,100.00
2023-01-08T08:53:57.509Z,100.00
2023-01-08T08:59:02.822Z,100.00
2023-01-08T09:04:04.545Z,100.00
2023-01-08T09:09:19.027Z,100.00
2023-01-08T09:14:21.607Z,100.00
2023-01-08T09:19:25.813Z,100.00
2023-01-08T09:24:32.378Z,100.00
2023-01-08T09:29:36.462Z,100.00
2023-01-08T09:34:40.823Z,100.00
2023-01-08T09:39:48.284Z,100.00
2023-01-08T09:44:57.257Z,100.00
2023-01-08T09:50:07.561Z,100.00
2023-01-08T09:55:14.061Z,100.00
2023-01-08T10:00:22.554Z,100.00
2023-01-08T10:05:29.904Z,100.00
2023-01-08T10:10:39.106Z,100.00
2023-01-08T10:15:41.545Z,100.00
2023-01-08T10:20:45.708Z,100.00
2023-01-08T10:26:04.517Z,100.00
2023-01-08T10:31:14.899Z,100.00
2023-01-08T10:36:27.754Z,100.00
2023-01-08T10:41:29.889Z,100.00
2023-01-08T10:46:43.991Z,100.00
2023-01-08T10:51:53.539Z,100.00
2023-01-08T10:56:55.325Z,100.00
2023-01-08T11:02:00.155Z,100.00
2023-01-08T11:07:05.070Z,100.00
2023-01-08T11:12:44.405Z,100.00
2023-01-08T11:17:49.784Z,100.00
2023-01-08T11:22:51.802Z,99.67
2023-01-08T11:27:54.840Z,97.97
2023-01-08T11:33:00.651Z,95.41
2023-01-08T11:38:03.509Z,93.13
2023-01-08T11:43:08.294Z,90.58
2023-01-08T11:48:36.085Z,86.98
2023-01-08T11:53:48.644Z,84.44
2023-01-08T11:59:05.192Z,82.58
2023-01-08T12:04:25.206Z,78.73
2023-01-08T12:09:40.415Z,77.91
2023-01-08T12:15:17.073Z,76.92
2023-01-08T12:20:43.096Z,75.07
2023-01-08T12:25:55.351Z,73.75
2023-01-08T12:31:09.017Z,71.95
2023-01-08T12:36:23.380Z,70.03
2023-01-08T12:41:29.964Z,69.21
2023-01-08T12:46:39.334Z,69.00
2023-01-08T12:51:56.839Z,67.83
2023-01-08T12:57:07.928Z,68.24
2023-01-08T13:02:28.327Z,67.67
2023-01-08T13:07:40.534Z,68.25
2023-01-08T13:12:43.732Z,67.29
2023-01-08T13:17:49.980Z,67.21
2023-01-08T13:22:54.341Z,66.56
2023-01-08T13:27:59.729Z,66.43
2023-01-08T13:33:01.905Z,65.69
2023-01-08T13:38:16.129Z,66.28
2023-01-08T13:43:27.828Z,65.35
2023-01-08T13:48:37.722Z,66.93
2023-01-08T13:53:44.367Z,67.50
2023-01-08T13:58:54.144Z,69.68
2023-01-08T14:03:57.521Z,69.03
2023-01-08T14:09:07.208Z,69.41
2023-01-08T14:14:20.361Z,71.66
2023-01-08T14:19:24.279Z,72.27
2023-01-08T14:24:28.459Z,74.98
2023-01-08T14:29:34.605Z,76.20
2023-01-08T14:34:39.663Z,77.36
2023-01-08T14:39:43.757Z,79.20
2023-01-08T14:44:48.731Z,81.89
2023-01-08T14:49:56.068Z,83.84
2023-01-08T14:55:03.213Z,85.16
2023-01-08T15:00:05.929Z,87.06
2023-01-08T15:05:18.503Z,89.64
2023-01-08T15:10:49.724Z,90.86
2023-01-08T15:16:03.662Z,92.83
2023-01-08T15:21:06.995Z,93.85
2023-01-08T15:26:16.264Z,95.50
2023-01-08T15:31:46.896Z,96.19
2023-01-08T15:36:48.724Z,97.94
2023-01-08T15:42:13.925Z,98.22
2023-01-08T15:47:15.649Z,99.62
2023-01-08T15:52:18.532Z,100.00
2023-01-08T15:57:22.110Z,100.00
2023-01-08T16:02:25.722Z,100.00
2023-01-08T16:07:30.558Z,100.00
2023-01-08T16:12:37.095Z,100.00
2023-01-08T16:17:41.128Z,100.00
2023-01-08T16:22:43.741Z,100.00
2023-01-08T16:27:50.281Z,100.00
2023-01-08T16:32:55.298Z,100.00
2023-01-08T16:37:57.134Z,100.00
2023-01-08T16:43:04.586Z,100.00
2023-01-08T16:48:08.790Z,100.00
2023-01-08T16:53:11.599Z,100.00
2023-01-08T16:58:15.910Z,100.00
2023-01-08T17:03:17.989Z,100.00
2023-01-08T17:08:22.596Z,100.00
2023-01-08T17:13:28.804Z,100.00
2023-01-08T17:18:35.577Z,100.00
2023-01-08T17:23:37.565Z,100.00
2023-01-08T17:28:40.434Z,100.00
2023-01-08T17:33:46.055Z,100.00
2023-01-08T17:38:49.677Z,100.00
2023-01-08T17:43:51.480Z,100.00
2023-01-08T17:48:53.231Z,100.00
2023-01-08T17:53:58.082Z,100.00
2023-01-08T17:59:02.821Z,100.00
2023-01-08T18:04:07.047Z,100.00
2023-01-08T18:09:14.882Z,100.00
2023-01-08T18:14:16.791Z,100.00
2023-01-08T18:19:19.985Z,100.00
2023-01-08T18:24:24.404Z,100.00
2023-01-08T18:29:28.658Z,100.00
2023-01-08T18:34:31.423Z,100.00
2023-01-08T18:39:35.407Z,100.00
2023-01-08T18:44:40.552Z,100.00
2023-01-08T18:49:44.817Z,100.00
2023-01-08T18:54:49.051Z,100.00
2023-01-08T18:59:50.937Z,100.00
2023-01-08T19:04:55.303Z,100.00
2023-01-08T19:09:59.192Z,100.00
2023-01-08T19:15:01.144Z,100.00
2023-01-08T19:20:04.076Z,100.00
2023-01-08T19:25:15.027Z,100.00
2023-01-08T19:30:17.230Z,100.00
2023-01-08T19:35:21.205Z,100.00
2023-01-08T19:40:22.983Z,100.00
2023-01-08T19:45:29.528Z,100.00
2023-01-08T19:50:34.195Z,100.00
2023-01-08T19:55:40.468Z,100.00
2023-01-08T20:00:44.710Z,100.00
2023-01-08T20:05:48.971Z,100.00
2023-01-08T20:10:50.771Z,100.00
2023-01-08T20:15:57.292Z,100.00
2023-01-08T20:21:11.481Z,100.00
2023-01-08T20:26:18.037Z,100.00
2023-01-08T20:31:23.464Z,100.00
2023-01-08T20:36:28.245Z,100.00
2023-01-08T20:41:30.266Z,100.00
2023-01-08T20:46:32.975Z,100.00
2023-01-08T20:51:36.874Z,100.00
2023-01-08T20:56:42.091Z,100.00
2023-01-08T21:01:43.927Z,100.00
2023-01-08T21:06:45.715Z,100.00
2023-01-08T21:11:52.314Z,100.00
2023-01-08T21:16:55.170Z,100.00
2023-01-08T21:21:59.900Z,100.00
2023-01-08T21:27:06.948Z,100.00
2023-01-08T21:32:14.029Z,100.00
2023-01-08T21:37:18.582Z,100.00
2023-01-08T21:42:38.862Z,100.00
2023-01-08T21:47:43.344Z,100.00
2023-01-08T21:53:06.110Z,100.00
2023-01-08T21:58:10.705Z,100.00
2023-01-08T22:03:12.399Z,100.00
2023-01-08T22:08:18.438Z,100.00
2023-01-08T22:13:22.717Z,100.00
2023-01-08T22:18:24.360Z,100.00
2023-01-08T22:23:26.107Z,100.00
2023-01-08T22:28:35.010Z,100.00
2023-01-08T22:33:37.823Z,100.00
2023-01-08T22:38:45.377Z,100.00
2023-01-08T22:43:56.558Z,100.00
2023-01-08T22:49:02.962Z,100.00
2023-01-08T22:54:04.690Z,100.00
2023-01-08T22:59:06.618Z,100.00
2023-01-08T23:04:13.133Z,100.00
2023-01-08T23:09:15.128Z,100.00
2023-01-08T23:14:24.076Z,100.00
2023-01-08T23:19:25.783Z,100.00
2023-01-08T23:24:32.710Z,100.00
2023-01-08T23:29:34.470Z,100.00
2023-01-08T23:34:40.587Z,100.00
2023-01-08T23:39:44.431Z,100.00
2023-01-08T23:44:46.133Z,100.00
2023-01-08T23:49:53.118Z,100.00
2023-01-08T23:54:57.066Z,100.00
